createdAt,value
2023-06-10T00:00:14.317Z,100036.53
2023-06-10T00:02:43.866Z,100039.94
2023-06-10T00:05:12.499Z,100027.00
2023-06-10T00:07:42.185Z,100025.03
2023-06-10T00:10:11.625Z,100035.69
2023-06-10T00:12:40.249Z,100037.72
2023-06-10T00:15:11.767Z,100030.53
2023-06-10T00:17:42.034Z,100026.69
2023-06-10T00:20:13.170Z,100032.19
2023-06-10T00:22:42.730Z,100028.06
2023-06-10T00:25:12.763Z,100035.56
2023-06-10T00:27:41.438Z,100036.72
2023-06-10T00:30:10.286Z,100026.03
2023-06-10T00:32:39.323Z,100032.38
2023-06-10T00:35:08.406Z,100033.31
2023-06-10T00:37:37.326Z,100035.06
2023-06-10T00:40:06.585Z,100029.78
2023-06-10T00:42:35.152Z,100042.53
2023-06-10T00:45:04.553Z,100038.03
2023-06-10T00:47:33.534Z,100038.13
2023-06-10T00:50:02.119Z,100046.06
2023-06-10T00:52:31.494Z,100040.34
2023-06-10T00:55:00.822Z,100048.06
2023-06-10T00:57:30.407Z,100042.75
2023-06-10T01:00:02.110Z,100038.03
2023-06-10T01:02:30.835Z,100046.78
2023-06-10T01:04:59.318Z,100049.34
2023-06-10T01:07:36.788Z,100054.38
2023-06-10T01:10:14.332Z,100055.41
2023-06-10T01:12:51.401Z,100060.88
2023-06-10T01:15:20.044Z,100058.66
2023-06-10T01:18:05.734Z,100051.00
2023-06-10T01:20:34.492Z,100052.75
2023-06-10T01:23:05.061Z,100050.25
2023-06-10T01:25:37.496Z,100043.47
2023-06-10T01:28:17.606Z,100047.44
2023-06-10T01:31:15.833Z,100047.66
2023-06-10T01:33:53.760Z,100053.72
2023-06-10T01:36:24.967Z,100058.94
2023-06-10T01:38:55.744Z,100061.88
2023-06-10T01:41:24.522Z,100067.09
2023-06-10T01:43:53.154Z,100063.22
2023-06-10T01:46:22.554Z,100069.25
2023-06-10T01:48:51.409Z,100065.13
2023-06-10T01:51:20.033Z,100059.38
2023-06-10T01:53:48.268Z,100063.78
2023-06-10T01:56:20.086Z,100073.09
2023-06-10T01:58:50.450Z,100071.09
2023-06-10T02:01:18.992Z,100072.56
2023-06-10T02:03:47.256Z,100073.22
2023-06-10T02:06:15.690Z,100077.19
2023-06-10T02:08:43.939Z,100080.31
2023-06-10T02:11:12.215Z,100072.09
2023-06-10T02:13:41.148Z,100079.56
2023-06-10T02:16:10.597Z,100077.94
2023-06-10T02:18:39.448Z,100076.72
2023-06-10T02:21:07.997Z,100081.25
2023-06-10T02:23:36.562Z,100080.66
2023-06-10T02:26:05.225Z,100092.47
2023-06-10T02:28:33.646Z,100096.63
2023-06-10T02:31:01.597Z,100093.56
2023-06-10T02:33:29.857Z,100101.03
2023-06-10T02:35:58.704Z,100094.44
2023-06-10T02:38:27.108Z,100098.97
2023-06-10T02:40:55.783Z,100091.97
2023-06-10T02:43:24.294Z,100095.09
2023-06-10T02:45:52.708Z,100100.28
2023-06-10T02:48:20.973Z,100092.06
2023-06-10T02:50:49.235Z,100088.75
2023-06-10T02:53:17.501Z,100091.69
2023-06-10T02:55:46.088Z,100086.94
2023-06-10T02:58:14.389Z,100090.06
2023-06-10T03:00:43.619Z,100091.91
2023-06-10T03:03:11.969Z,100095.03
2023-06-10T03:05:41.265Z,100091.75
2023-06-10T03:08:09.459Z,100095.47
2023-06-10T03:10:37.767Z,100099.00
2023-06-10T03:13:06.320Z,100095.72
2023-06-10T03:15:35.119Z,100094.25
2023-06-10T03:18:03.753Z,100097.97
2023-06-10T03:20:32.184Z,100104.59
2023-06-10T03:23:00.542Z,100106.69
2023-06-10T03:25:29.901Z,100114.34
2023-06-10T03:27:58.141Z,100120.16
2023-06-10T03:30:26.381Z,100123.06
2023-06-10T03:32:54.668Z,100127.81
2023-06-10T03:35:23.381Z,100130.94
2023-06-10T03:37:51.965Z,100135.28
2023-06-10T03:40:20.224Z,100140.84
2023-06-10T03:42:48.464Z,100139.81
2023-06-10T03:45:17.197Z,100140.66
2023-06-10T03:47:46.399Z,100147.25
2023-06-10T03:50:15.060Z,100140.63
2023-06-10T03:52:43.438Z,100152.81
2023-06-10T03:55:14.671Z,100150.28
2023-06-10T03:57:43.116Z,100159.19
2023-06-10T04:00:12.826Z,100152.19
2023-06-10T04:02:47.292Z,100161.88
2023-06-10T04:05:17.318Z,100156.72
2023-06-10T04:07:46.109Z,100165.63
2023-06-10T04:10:14.491Z,100164.13
2023-06-10T04:12:43.097Z,100172.00
2023-06-10T04:15:11.899Z,100170.16
2023-06-10T04:17:41.224Z,100175.53
2023-06-10T04:20:11.063Z,100173.25
2023-06-10T04:22:39.323Z,100167.41
2023-06-10T04:25:08.914Z,100172.56
2023-06-10T04:27:37.452Z,100168.25
2023-06-10T04:30:06.662Z,100178.63
2023-06-10T04:32:35.044Z,100175.53
2023-06-10T04:35:03.308Z,100174.47
2023-06-10T04:37:31.626Z,100182.09
2023-06-10T04:40:00.057Z,100177.75
2023-06-10T04:42:28.258Z,100175.66
2023-06-10T04:44:56.805Z,100174.63
2023-06-10T04:47:25.202Z,100188.69
2023-06-10T04:49:53.850Z,100186.78
2023-06-10T04:52:22.118Z,100182.22
2023-06-10T04:54:50.498Z,100183.66
2023-06-10T04:57:19.493Z,100176.19
2023-06-10T04:59:48.002Z,100174.13
2023-06-10T05:02:16.260Z,100184.22
2023-06-10T05:04:44.587Z,100178.22
2023-06-10T05:07:12.928Z,100179.84
2023-06-10T05:09:41.341Z,100184.19
2023-06-10T05:12:10.182Z,100185.84
2023-06-10T05:14:38.420Z,100182.53
2023-06-10T05:17:07.794Z,100185.44
2023-06-10T05:19:36.903Z,100180.84
2023-06-10T05:22:05.474Z,100184.53
2023-06-10T05:24:33.684Z,100182.22
2023-06-10T05:27:02.079Z,100191.91
2023-06-10T05:29:30.779Z,100199.91
2023-06-10T05:32:03.262Z,100198.97
2023-06-10T05:34:34.121Z,100190.66
2023-06-10T05:37:02.630Z,100194.72
2023-06-10T05:39:30.927Z,100204.47
2023-06-10T05:41:59.993Z,100204.34
2023-06-10T05:44:28.366Z,100206.53
2023-06-10T05:46:56.729Z,100192.66
2023-06-10T05:49:25.553Z,100206.63
2023-06-10T05:51:54.166Z,100191.56
2023-06-10T05:54:22.562Z,100199.38
2023-06-10T05:56:50.948Z,100190.72
2023-06-10T05:59:19.410Z,100194.44
2023-06-10T06:01:47.628Z,100191.47
2023-06-10T06:04:15.923Z,100194.81
2023-06-10T06:06:44.354Z,100197.25
2023-06-10T06:09:12.558Z,100193.84
2023-06-10T06:11:40.959Z,100200.66
2023-06-10T06:14:09.186Z,100204.41
2023-06-10T06:16:37.503Z,100194.91
2023-06-10T06:19:05.900Z,100199.91
2023-06-10T06:21:34.105Z,100207.72
2023-06-10T06:24:02.483Z,100218.19
2023-06-10T06:26:31.024Z,100212.13
2023-06-10T06:28:59.543Z,100217.31
2023-06-10T06:31:28.165Z,100218.16
2023-06-10T06:33:56.476Z,100222.34
2023-06-10T06:36:25.202Z,100223.09
2023-06-10T06:38:53.456Z,100225.81
2023-06-10T06:41:22.950Z,100228.84
2023-06-10T06:43:51.169Z,100235.13
2023-06-10T06:46:19.395Z,100237.06
2023-06-10T06:48:47.784Z,100243.22
2023-06-10T06:51:16.139Z,100235.75
2023-06-10T06:53:45.850Z,100239.88
2023-06-10T06:56:14.554Z,100243.28
2023-06-10T06:58:43.025Z,100245.22
2023-06-10T07:01:11.271Z,100242.16
2023-06-10T07:03:39.516Z,100244.00
2023-06-10T07:06:07.821Z,100247.41
2023-06-10T07:08:36.320Z,100249.03
2023-06-10T07:11:04.605Z,100244.94
2023-06-10T07:13:32.983Z,100238.41
2023-06-10T07:16:01.194Z,100251.06
2023-06-10T07:18:29.656Z,100241.13
2023-06-10T07:20:58.098Z,100249.91
2023-06-10T07:23:26.341Z,100251.56
2023-06-10T07:25:54.771Z,100240.06
2023-06-10T07:28:23.022Z,100247.19
2023-06-10T07:30:51.603Z,100248.06
2023-06-10T07:33:20.083Z,100249.13
2023-06-10T07:35:48.445Z,100244.03
2023-06-10T07:38:16.880Z,100258.84
2023-06-10T07:40:45.194Z,100253.16
2023-06-10T07:43:13.555Z,100260.25
2023-06-10T07:45:45.223Z,100256.44
2023-06-10T07:48:13.587Z,100258.63
2023-06-10T07:50:42.164Z,100265.16
2023-06-10T07:53:10.700Z,100264.00
2023-06-10T07:55:39.111Z,100261.59
2023-06-10T07:58:07.373Z,100267.34
2023-06-10T08:00:35.736Z,100262.47
2023-06-10T08:03:04.287Z,100273.66
2023-06-10T08:05:32.730Z,100260.31
2023-06-10T08:08:03.727Z,100260.63
2023-06-10T08:10:32.738Z,100266.59
2023-06-10T08:13:01.065Z,100260.91
2023-06-10T08:15:29.333Z,100258.13
2023-06-10T08:17:58.077Z,100270.41
2023-06-10T08:20:26.537Z,100264.44
2023-06-10T08:22:54.896Z,100260.88
2023-06-10T08:25:23.710Z,100257.59
2023-06-10T08:27:53.219Z,100252.38
2023-06-10T08:30:21.594Z,100267.63
2023-06-10T08:32:49.883Z,100260.03
2023-06-10T08:35:18.092Z,100267.41
2023-06-10T08:37:46.415Z,100269.34
2023-06-10T08:40:15.095Z,100259.25
2023-06-10T08:42:52.486Z,100259.28
2023-06-10T08:45:21.157Z,100266.91
2023-06-10T08:47:54.083Z,100256.53
2023-06-10T08:50:23.269Z,100255.44
2023-06-10T08:52:56.180Z,100251.06
2023-06-10T08:55:44.238Z,100247.00
2023-06-10T08:58:12.560Z,100241.81
2023-06-10T09:00:41.168Z,100249.44
2023-06-10T09:03:10.213Z,100243.75
2023-06-10T09:05:38.829Z,100246.16
2023-06-10T09:08:08.501Z,100246.97
2023-06-10T09:10:37.035Z,100249.22
2023-06-10T09:13:05.478Z,100243.75
2023-06-10T09:15:33.861Z,100245.69
2023-06-10T09:18:03.255Z,100241.25
2023-06-10T09:20:31.672Z,100240.78
2023-06-10T09:23:00.830Z,100252.47
2023-06-10T09:25:40.731Z,100253.56
2023-06-10T09:28:17.038Z,100244.06
2023-06-10T09:30:45.285Z,100243.75
2023-06-10T09:33:16.785Z,100244.88
2023-06-10T09:35:49.794Z,100245.94
2023-06-10T09:38:23.104Z,100247.34
2023-06-10T09:40:56.121Z,100239.13
2023-06-10T09:43:24.772Z,100244.59
2023-06-10T09:45:58.588Z,100248.94
2023-06-10T09:48:26.934Z,100245.38
2023-06-10T09:50:55.181Z,100243.75
2023-06-10T09:53:23.540Z,100237.78
2023-06-10T09:55:52.330Z,100239.38
2023-06-10T09:58:20.596Z,100244.84
2023-06-10T10:00:55.545Z,100238.59
2023-06-10T10:03:26.612Z,100238.59
2023-06-10T10:06:01.899Z,100238.78
2023-06-10T10:08:30.771Z,100241.81
2023-06-10T10:10:59.940Z,100245.34
2023-06-10T10:13:29.353Z,100231.97
2023-06-10T10:16:02.244Z,100234.16
2023-06-10T10:18:33.309Z,100236.91
2023-06-10T10:21:09.036Z,100237.19
2023-06-10T10:24:20.271Z,100226.56
2023-06-10T10:26:50.692Z,100230.91
2023-06-10T10:29:41.113Z,100228.44
2023-06-10T10:32:09.884Z,100229.59
2023-06-10T10:34:39.563Z,100221.69
2023-06-10T10:37:07.905Z,100219.75
2023-06-10T10:39:37.799Z,100207.47
2023-06-10T10:42:10.864Z,100210.75
2023-06-10T10:44:41.020Z,100202.84
2023-06-10T10:47:13.416Z,100210.72
2023-06-10T10:49:45.513Z,100196.25
2023-06-10T10:52:14.461Z,100187.53
2023-06-10T10:54:47.951Z,100194.88
2023-06-10T10:57:17.504Z,100196.28
2023-06-10T10:59:52.667Z,100192.97
2023-06-10T11:02:44.734Z,100196.00
2023-06-10T11:05:17.118Z,100179.34
2023-06-10T11:07:57.355Z,100189.16
2023-06-10T11:10:55.887Z,100180.44
2023-06-10T11:13:24.547Z,100180.69
2023-06-10T11:15:53.074Z,100173.34
2023-06-10T11:18:34.150Z,100192.19
2023-06-10T11:21:06.970Z,100170.34
2023-06-10T11:23:36.269Z,100169.25
2023-06-10T11:26:23.466Z,100160.78
2023-06-10T11:28:57.528Z,100166.22
2023-06-10T11:31:26.180Z,100162.13
2023-06-10T11:34:07.457Z,100163.44
2023-06-10T11:36:46.551Z,100168.63
2023-06-10T11:39:15.739Z,100155.81
2023-06-10T11:41:44.096Z,100157.19
2023-06-10T11:44:18.250Z,100146.50
2023-06-10T11:46:49.364Z,100149.81
2023-06-10T11:49:17.614Z,100152.25
2023-06-10T11:51:50.634Z,100151.69
2023-06-10T11:54:19.691Z,100149.22
2023-06-10T11:56:48.550Z,100151.34
2023-06-10T11:59:16.860Z,100142.00
2023-06-10T12:01:47.650Z,100144.94
2023-06-10T12:04:19.239Z,100129.34
2023-06-10T12:06:52.844Z,100128.78
2023-06-10T12:09:33.566Z,100114.28
2023-06-10T12:12:04.747Z,100118.16
2023-06-10T12:15:03.874Z,100118.22
2023-06-10T12:17:35.288Z,100122.09
2023-06-10T12:20:11.090Z,100116.13
2023-06-10T12:22:46.812Z,100125.94
2023-06-10T12:25:16.136Z,100119.63
2023-06-10T12:27:54.099Z,100123.06
2023-06-10T12:30:27.422Z,100118.34
2023-06-10T12:32:56.252Z,100117.94
2023-06-10T12:35:26.745Z,100118.13
2023-06-10T12:38:07.866Z,100119.16
2023-06-10T12:40:41.064Z,100127.34
2023-06-10T12:43:09.513Z,100122.75
2023-06-10T12:45:40.702Z,100132.06
2023-06-10T12:48:11.264Z,100127.56
2023-06-10T12:50:44.384Z,100143.81
2023-06-10T12:53:13.444Z,100165.13
2023-06-10T12:55:41.665Z,100150.91
2023-06-10T12:58:10.380Z,100167.66
2023-06-10T13:00:38.596Z,100164.59
2023-06-10T13:03:08.004Z,100173.63
2023-06-10T13:05:39.978Z,100172.34
2023-06-10T13:08:11.173Z,100174.72
2023-06-10T13:10:39.823Z,100156.34
2023-06-10T13:13:09.174Z,100151.78
2023-06-10T13:15:42.648Z,100151.72
2023-06-10T13:18:12.082Z,100143.84
2023-06-10T13:20:40.487Z,100142.19
2023-06-10T13:23:09.024Z,100136.72
2023-06-10T13:25:37.285Z,100135.56
2023-06-10T13:28:05.584Z,100136.81
2023-06-10T13:30:33.847Z,100138.72
2023-06-10T13:33:02.244Z,100145.00
2023-06-10T13:35:30.482Z,100140.16
2023-06-10T13:37:58.870Z,100147.31
2023-06-10T13:40:27.056Z,100142.75
2023-06-10T13:42:55.361Z,100137.81
2023-06-10T13:45:23.718Z,100147.22
2023-06-10T13:47:51.970Z,100151.59
2023-06-10T13:50:20.341Z,100148.31
2023-06-10T13:52:48.699Z,100144.47
2023-06-10T13:55:17.676Z,100146.19
2023-06-10T13:57:45.963Z,100136.16
2023-06-10T14:00:15.100Z,100128.78
2023-06-10T14:02:43.406Z,100134.06
2023-06-10T14:05:12.009Z,100131.19
2023-06-10T14:07:41.729Z,100123.47
2023-06-10T14:10:10.804Z,100123.59
2023-06-10T14:12:39.034Z,100115.53
2023-06-10T14:15:07.906Z,100118.06
2023-06-10T14:17:36.836Z,100112.41
2023-06-10T14:20:05.271Z,100116.50
2023-06-10T14:22:33.532Z,100110.75
2023-06-10T14:25:01.747Z,100108.88
2023-06-10T14:27:30.144Z,100117.41
2023-06-10T14:29:58.346Z,100123.19
2023-06-10T14:32:26.668Z,100126.25
2023-06-10T14:34:54.986Z,100132.81
2023-06-10T14:37:23.209Z,100131.75
2023-06-10T14:39:51.446Z,100137.47
2023-06-10T14:42:19.791Z,100142.09
2023-06-10T14:44:48.009Z,100146.19
2023-06-10T14:47:16.291Z,100147.56
2023-06-10T14:49:44.885Z,100145.09
2023-06-10T14:52:13.141Z,100137.19
2023-06-10T14:54:41.342Z,100136.84
2023-06-10T14:57:09.593Z,100146.84
2023-06-10T14:59:37.796Z,100144.81
2023-06-10T15:02:06.313Z,100147.50
2023-06-10T15:04:34.556Z,100147.41
2023-06-10T15:07:02.825Z,100135.63
2023-06-10T15:09:31.220Z,100142.63
2023-06-10T15:12:00.870Z,100134.94
2023-06-10T15:14:29.293Z,100135.97
2023-06-10T15:16:59.349Z,100150.03
2023-06-10T15:19:28.219Z,100140.47
2023-06-10T15:21:56.500Z,100145.88
2023-06-10T15:24:24.758Z,100141.50
2023-06-10T15:26:52.991Z,100139.84
2023-06-10T15:29:21.357Z,100139.59
2023-06-10T15:31:49.633Z,100139.91
2023-06-10T15:34:17.848Z,100134.78
2023-06-10T15:36:46.159Z,100137.28
2023-06-10T15:39:14.409Z,100140.31
2023-06-10T15:41:42.697Z,100130.53
2023-06-10T15:44:10.986Z,100136.56
2023-06-10T15:46:39.320Z,100137.94
2023-06-10T15:49:07.608Z,100133.66
2023-06-10T15:51:35.845Z,100125.25
2023-06-10T15:54:04.291Z,100134.25
2023-06-10T15:56:32.569Z,100131.31
2023-06-10T15:59:00.967Z,100134.03
2023-06-10T16:01:29.233Z,100132.19
2023-06-10T16:03:57.562Z,100123.22
2023-06-10T16:06:26.639Z,100122.22
2023-06-10T16:08:54.815Z,100130.47
2023-06-10T16:11:24.033Z,100124.84
2023-06-10T16:13:52.287Z,100128.97
2023-06-10T16:16:20.682Z,100126.25
2023-06-10T16:18:49.160Z,100127.91
2023-06-10T16:21:17.507Z,100110.75
2023-06-10T16:23:45.802Z,100116.47
2023-06-10T16:26:14.195Z,100116.19
2023-06-10T16:28:42.793Z,100118.41
2023-06-10T16:31:11.114Z,100114.88
2023-06-10T16:33:39.526Z,100125.53
2023-06-10T16:36:07.969Z,100124.47
2023-06-10T16:38:36.525Z,100122.84
2023-06-10T16:41:04.940Z,100122.59
2023-06-10T16:43:33.421Z,100115.81
2023-06-10T16:46:01.624Z,100114.72
2023-06-10T16:48:30.071Z,100118.81
2023-06-10T16:50:58.510Z,100124.53
2023-06-10T16:53:26.743Z,100127.53
2023-06-10T16:55:55.331Z,100126.47
2023-06-10T16:58:24.540Z,100121.78
2023-06-10T17:00:53.001Z,100120.72
2023-06-10T17:03:21.308Z,100127.81
2023-06-10T17:05:49.796Z,100130.81
2023-06-10T17:08:18.158Z,100141.44
2023-06-10T17:10:46.383Z,100133.25
2023-06-10T17:13:14.736Z,100147.16
2023-06-10T17:15:43.010Z,100140.88
2023-06-10T17:18:11.500Z,100146.09
2023-06-10T17:20:39.898Z,100153.41
2023-06-10T17:23:08.877Z,100153.41
2023-06-10T17:25:37.999Z,100149.06
2023-06-10T17:28:06.335Z,100152.06
2023-06-10T17:30:34.658Z,100154.78
2023-06-10T17:33:03.071Z,100155.88
2023-06-10T17:35:31.380Z,100150.94
2023-06-10T17:37:59.599Z,100160.44
2023-06-10T17:40:27.975Z,100166.72
2023-06-10T17:42:56.246Z,100160.44
2023-06-10T17:45:24.898Z,100160.16
2023-06-10T17:47:53.425Z,100160.44
2023-06-10T17:50:21.803Z,100162.59
2023-06-10T17:52:50.310Z,100165.56
2023-06-10T17:55:18.701Z,100166.09
2023-06-10T17:57:46.938Z,100170.16
2023-06-10T18:00:15.429Z,100166.63
2023-06-10T18:02:44.042Z,100167.44
2023-06-10T18:05:12.751Z,100166.31
2023-06-10T18:07:42.274Z,100162.97
2023-06-10T18:10:11.990Z,100168.41
2023-06-10T18:12:40.420Z,100166.94
2023-06-10T18:15:09.370Z,100173.16
2023-06-10T18:17:38.018Z,100172.59
2023-06-10T18:20:07.121Z,100176.13
2023-06-10T18:22:35.353Z,100177.69
2023-06-10T18:25:05.797Z,100180.63
2023-06-10T18:27:35.776Z,100172.44
2023-06-10T18:30:04.239Z,100178.91
2023-06-10T18:32:32.511Z,100173.41
2023-06-10T18:35:00.937Z,100179.63
2023-06-10T18:37:29.355Z,100184.47
2023-06-10T18:39:57.581Z,100186.31
2023-06-10T18:42:26.084Z,100188.97
2023-06-10T18:44:54.705Z,100186.75
2023-06-10T18:47:23.111Z,100180.47
2023-06-10T18:49:51.409Z,100187.69
2023-06-10T18:52:19.653Z,100192.78
2023-06-10T18:54:47.903Z,100191.28
2023-06-10T18:57:16.122Z,100197.72
2023-06-10T18:59:44.840Z,100193.31
2023-06-10T19:02:13.203Z,100190.81
2023-06-10T19:04:41.543Z,100189.09
2023-06-10T19:07:09.819Z,100193.41
2023-06-10T19:09:38.426Z,100197.09
2023-06-10T19:12:07.627Z,100198.38
2023-06-10T19:14:35.882Z,100215.97
2023-06-10T19:17:04.299Z,100223.88
2023-06-10T19:19:32.956Z,100216.56
2023-06-10T19:22:01.287Z,100218.97
2023-06-10T19:24:29.509Z,100219.47
2023-06-10T19:26:57.844Z,100229.22
2023-06-10T19:29:26.249Z,100234.34
2023-06-10T19:31:54.538Z,100219.38
2023-06-10T19:34:23.080Z,100226.97
2023-06-10T19:36:51.326Z,100225.50
2023-06-10T19:39:19.514Z,100232.19
2023-06-10T19:41:48.051Z,100227.13
2023-06-10T19:44:16.303Z,100238.06
2023-06-10T19:46:46.024Z,100236.47
2023-06-10T19:49:14.324Z,100239.53
2023-06-10T19:51:43.136Z,100237.13
2023-06-10T19:54:11.526Z,100238.84
2023-06-10T19:56:39.765Z,100241.38
2023-06-10T19:59:07.986Z,100244.97
2023-06-10T20:01:36.282Z,100246.44
2023-06-10T20:04:05.951Z,100248.97
2023-06-10T20:06:34.431Z,100246.84
2023-06-10T20:09:02.732Z,100251.81
2023-06-10T20:11:31.131Z,100255.75
2023-06-10T20:13:59.385Z,100248.25
2023-06-10T20:16:28.118Z,100252.13
2023-06-10T20:18:56.742Z,100249.78
2023-06-10T20:21:25.332Z,100255.56
2023-06-10T20:23:54.068Z,100258.63
2023-06-10T20:26:22.511Z,100257.13
2023-06-10T20:28:51.011Z,100262.88
2023-06-10T20:31:20.423Z,100258.41
2023-06-10T20:33:48.718Z,100258.28
2023-06-10T20:36:16.933Z,100260.84
2023-06-10T20:38:45.149Z,100266.38
2023-06-10T20:41:13.549Z,100260.03
2023-06-10T20:43:41.743Z,100267.22
2023-06-10T20:46:10.049Z,100264.38
2023-06-10T20:48:38.659Z,100259.69
2023-06-10T20:51:06.959Z,100267.66
2023-06-10T20:53:35.678Z,100259.66
2023-06-10T20:56:03.880Z,100257.41
2023-06-10T20:58:32.115Z,100257.06
2023-06-10T21:01:01.515Z,100262.94
2023-06-10T21:03:29.879Z,100259.88
2023-06-10T21:05:58.173Z,100261.16
2023-06-10T21:08:27.947Z,100264.69
2023-06-10T21:10:56.532Z,100265.72
2023-06-10T21:13:24.855Z,100265.16
2023-06-10T21:15:53.102Z,100265.38
2023-06-10T21:18:21.424Z,100271.03
2023-06-10T21:20:49.792Z,100281.00
2023-06-10T21:23:18.123Z,100274.19
2023-06-10T21:25:46.449Z,100276.66
2023-06-10T21:28:15.696Z,100278.88
2023-06-10T21:30:44.391Z,100275.03
2023-06-10T21:33:12.660Z,100286.00
2023-06-10T21:35:41.828Z,100285.22
2023-06-10T21:38:09.979Z,100286.38
2023-06-10T21:40:38.334Z,100287.66
2023-06-10T21:43:07.395Z,100281.81
2023-06-10T21:45:35.822Z,100290.06
2023-06-10T21:48:04.228Z,100289.00
2023-06-10T21:50:32.578Z,100293.81
2023-06-10T21:53:01.520Z,100292.78
2023-06-10T21:55:30.023Z,100288.41
2023-06-10T21:57:58.268Z,100289.47
2023-06-10T22:00:26.546Z,100287.38
2023-06-10T22:02:54.956Z,100297.09
2023-06-10T22:05:23.409Z,100306.16
2023-06-10T22:07:52.470Z,100298.66
2023-06-10T22:10:21.031Z,100300.97
2023-06-10T22:12:49.434Z,100302.72
2023-06-10T22:15:17.727Z,100302.72
2023-06-10T22:17:46.567Z,100301.56
2023-06-10T22:20:15.079Z,100301.44
2023-06-10T22:22:43.314Z,100305.44
2023-06-10T22:25:11.725Z,100304.25
2023-06-10T22:27:40.191Z,100303.06
2023-06-10T22:30:09.165Z,100302.72
2023-06-10T22:32:37.426Z,100305.88
2023-06-10T22:35:07.123Z,100306.81
2023-06-10T22:37:36.712Z,100307.06
2023-06-10T22:40:06.106Z,100302.47
2023-06-10T22:42:34.339Z,100310.94
2023-06-10T22:45:02.802Z,100310.69
2023-06-10T22:47:31.067Z,100316.34
2023-06-10T22:49:59.366Z,100312.56
2023-06-10T22:52:27.653Z,100314.22
2023-06-10T22:54:55.911Z,100321.41
2023-06-10T22:57:24.274Z,100308.25
2023-06-10T22:59:52.668Z,100314.22
2023-06-10T23:02:21.021Z,100312.13
2023-06-10T23:04:49.411Z,100312.13
2023-06-10T23:07:19.448Z,100310.13
2023-06-10T23:09:47.921Z,100307.53
2023-06-10T23:12:16.226Z,100317.97
2023-06-10T23:14:44.467Z,100316.78
2023-06-10T23:17:13.660Z,100319.38
2023-06-10T23:19:44.098Z,100320.56
2023-06-10T23:22:12.402Z,100315.78
2023-06-10T23:24:44.230Z,100320.47
2023-06-10T23:27:17.268Z,100321.31
2023-06-10T23:32:20.873Z,100322.91
2023-06-10T23:34:49.525Z,100324.91
2023-06-10T23:37:20.765Z,100322.19
2023-06-10T23:39:49.617Z,100328.91
2023-06-10T23:42:18.541Z,100334.66
2023-06-10T23:44:46.762Z,100326.19
2023-06-10T23:47:15.060Z,100328.06
2023-06-10T23:49:43.306Z,100328.28
2023-06-10T23:52:12.759Z,100326.84
2023-06-10T23:54:41.210Z,100331.31
2023-06-10T23:57:09.539Z,100342.22
2023-06-10T23:59:37.925Z,100335.63
